createdAt,value
2023-02-26T00:02:12.036Z,100818.16
2023-02-26T00:04:35.588Z,100813.03
2023-02-26T00:06:59.545Z,100812.38
2023-02-26T00:09:24.167Z,100818.69
2023-02-26T00:11:49.061Z,100819.63
2023-02-26T00:14:16.426Z,100824.53
2023-02-26T00:16:40.618Z,100830.47
2023-02-26T00:19:08.634Z,100836.66
2023-02-26T00:21:33.833Z,100839.34
2023-02-26T00:23:58.434Z,100836.50
2023-02-26T00:26:23.462Z,100840.06
2023-02-26T00:28:47.898Z,100840.66
2023-02-26T00:31:13.007Z,100851.19
2023-02-26T00:33:37.562Z,100848.16
2023-02-26T00:36:14.734Z,100854.66
2023-02-26T00:38:39.084Z,100867.09
2023-02-26T00:41:03.384Z,100864.38
2023-02-26T00:43:28.139Z,100873.91
2023-02-26T00:45:59.713Z,100877.91
2023-02-26T00:48:42.051Z,100885.41
2023-02-26T00:51:21.093Z,100883.66
2023-02-26T00:53:52.805Z,100885.16
2023-02-26T00:56:16.852Z,100891.78
2023-02-26T00:58:40.375Z,100888.13
2023-02-26T01:01:05.297Z,100892.34
2023-02-26T01:03:30.051Z,100889.69
2023-02-26T01:05:54.375Z,100895.47
2023-02-26T01:08:25.892Z,100902.75
2023-02-26T01:10:50.199Z,100900.53
2023-02-26T01:13:14.818Z,100892.50
2023-02-26T01:15:39.286Z,100901.69
2023-02-26T01:18:10.784Z,100903.81
2023-02-26T01:20:44.888Z,100902.59
2023-02-26T01:23:14.674Z,100909.94
2023-02-26T01:25:47.693Z,100910.91
2023-02-26T01:28:12.198Z,100910.34
2023-02-26T01:30:36.780Z,100915.97
2023-02-26T01:33:10.239Z,100916.94
2023-02-26T01:35:43.360Z,100916.94
2023-02-26T01:38:18.698Z,100922.78
2023-02-26T01:41:18.342Z,100919.75
2023-02-26T01:43:52.963Z,100915.53
2023-02-26T01:46:24.044Z,100919.38
2023-02-26T01:48:53.152Z,100931.81
2023-02-26T01:51:16.852Z,100928.19
2023-02-26T01:53:40.566Z,100929.38
2023-02-26T01:56:13.173Z,100928.38
2023-02-26T01:58:38.211Z,100934.44
2023-02-26T02:01:02.879Z,100930.50
2023-02-26T02:03:29.619Z,100941.00
2023-02-26T02:05:57.909Z,100943.25
2023-02-26T02:08:22.466Z,100946.38
2023-02-26T02:10:48.975Z,100949.88
2023-02-26T02:13:33.557Z,100954.66
2023-02-26T02:16:09.634Z,100956.03
2023-02-26T02:18:55.308Z,100960.75
2023-02-26T02:22:03.545Z,100968.47
2023-02-26T02:24:42.899Z,100967.44
2023-02-26T02:27:15.274Z,100976.13
2023-02-26T02:30:21.632Z,100977.03
2023-02-26T02:32:51.600Z,100981.44
2023-02-26T02:35:21.478Z,100986.88
2023-02-26T02:37:49.783Z,100990.25
2023-02-26T02:40:17.946Z,100991.59
2023-02-26T02:42:48.318Z,100998.94
2023-02-26T02:45:19.111Z,101002.09
2023-02-26T02:47:49.423Z,101001.34
2023-02-26T02:50:20.637Z,101003.66
2023-02-26T02:52:51.028Z,101002.97
2023-02-26T02:55:20.150Z,101000.75
2023-02-26T02:57:50.570Z,101001.69
2023-02-26T03:00:18.250Z,101013.47
2023-02-26T03:02:50.837Z,101015.50
2023-02-26T03:05:15.422Z,101011.06
2023-02-26T03:07:46.393Z,101017.69
2023-02-26T03:10:13.001Z,101021.91
2023-02-26T03:12:37.240Z,101024.81
2023-02-26T03:15:02.087Z,101031.28
2023-02-26T03:17:33.413Z,101037.44
2023-02-26T03:20:13.452Z,101043.44
2023-02-26T03:22:44.794Z,101043.50
2023-02-26T03:25:19.726Z,101051.34
2023-02-26T03:27:50.850Z,101046.53
2023-02-26T03:30:22.152Z,101050.59
2023-02-26T03:32:54.987Z,101062.13
2023-02-26T03:35:27.113Z,101059.66
2023-02-26T03:37:56.082Z,101063.75
2023-02-26T03:40:25.811Z,101069.78
2023-02-26T03:42:54.999Z,101069.59
2023-02-26T03:45:25.217Z,101076.47
2023-02-26T03:47:53.840Z,101096.56
2023-02-26T03:50:27.118Z,101091.38
2023-02-26T03:53:13.764Z,101093.91
2023-02-26T03:55:49.392Z,101099.59
2023-02-26T03:58:32.087Z,101101.06
2023-02-26T04:01:30.404Z,101112.94
2023-02-26T04:04:00.284Z,101111.88
2023-02-26T04:06:26.451Z,101120.19
2023-02-26T04:08:50.863Z,101122.94
2023-02-26T04:11:20.414Z,101126.44
2023-02-26T04:13:44.055Z,101125.69
2023-02-26T04:16:08.613Z,101134.94
2023-02-26T04:18:33.153Z,101136.63
2023-02-26T04:20:56.803Z,101134.88
2023-02-26T04:23:21.985Z,101146.53
2023-02-26T04:25:45.559Z,101151.34
2023-02-26T04:28:10.711Z,101154.97
2023-02-26T04:30:34.731Z,101150.66
2023-02-26T04:32:59.995Z,101159.50
2023-02-26T04:35:23.597Z,101167.72
2023-02-26T04:37:47.276Z,101161.69
2023-02-26T04:40:14.439Z,101167.13
2023-02-26T04:42:38.830Z,101166.44
2023-02-26T04:45:02.652Z,101166.63
2023-02-26T04:47:26.667Z,101170.28
2023-02-26T04:49:50.240Z,101182.88
2023-02-26T04:52:14.013Z,101175.09
2023-02-26T04:54:37.944Z,101180.00
2023-02-26T04:57:03.020Z,101179.22
2023-02-26T04:59:26.740Z,101179.69
2023-02-26T05:01:50.414Z,101183.63
2023-02-26T05:04:14.070Z,101193.41
2023-02-26T05:06:40.506Z,101190.38
2023-02-26T05:09:04.388Z,101192.16
2023-02-26T05:11:28.088Z,101200.09
2023-02-26T05:13:53.084Z,101203.63
2023-02-26T05:16:17.132Z,101205.06
2023-02-26T05:18:40.799Z,101212.09
2023-02-26T05:21:05.810Z,101221.53
2023-02-26T05:23:29.977Z,101220.13
2023-02-26T05:25:56.445Z,101230.84
2023-02-26T05:28:20.023Z,101228.66
2023-02-26T05:30:45.103Z,101232.13
2023-02-26T05:33:09.074Z,101227.00
2023-02-26T05:35:32.776Z,101219.38
2023-02-26T05:37:56.294Z,101229.97
2023-02-26T05:40:20.188Z,101242.78
2023-02-26T05:42:43.706Z,101237.88
2023-02-26T05:45:09.244Z,101243.41
2023-02-26T05:47:34.315Z,101240.66
2023-02-26T05:49:57.931Z,101247.09
2023-02-26T05:52:21.448Z,101255.44
2023-02-26T05:54:45.118Z,101257.28
2023-02-26T05:57:08.736Z,101264.09
2023-02-26T05:59:32.280Z,101271.38
2023-02-26T06:01:55.944Z,101270.41
2023-02-26T06:04:20.909Z,101279.16
2023-02-26T06:06:44.464Z,101274.53
2023-02-26T06:09:08.332Z,101282.84
2023-02-26T06:11:34.038Z,101287.84
2023-02-26T06:13:58.258Z,101283.25
2023-02-26T06:16:22.440Z,101290.81
2023-02-26T06:18:46.013Z,101297.31
2023-02-26T06:21:10.922Z,101297.06
2023-02-26T06:23:34.962Z,101293.69
2023-02-26T06:25:59.916Z,101305.59
2023-02-26T06:28:24.703Z,101303.44
2023-02-26T06:30:48.474Z,101310.06
2023-02-26T06:33:12.530Z,101315.75
2023-02-26T06:35:36.133Z,101323.94
2023-02-26T06:38:01.162Z,101317.97
2023-02-26T06:40:24.857Z,101326.19
2023-02-26T06:42:48.445Z,101335.50
2023-02-26T06:45:12.836Z,101337.53
2023-02-26T06:47:36.465Z,101337.84
2023-02-26T06:50:00.078Z,101348.19
2023-02-26T06:52:23.691Z,101350.78
2023-02-26T06:54:48.629Z,101349.78
2023-02-26T06:57:12.224Z,101348.38
2023-02-26T06:59:35.716Z,101361.59
2023-02-26T07:01:59.348Z,101360.78
2023-02-26T07:04:22.916Z,101366.06
2023-02-26T07:06:46.511Z,101373.09
2023-02-26T07:09:10.422Z,101382.16
2023-02-26T07:11:35.438Z,101383.09
2023-02-26T07:13:58.982Z,101390.59
2023-02-26T07:16:22.621Z,101401.59
2023-02-26T07:18:46.195Z,101402.94
2023-02-26T07:21:10.011Z,101404.00
2023-02-26T07:23:33.760Z,101404.47
2023-02-26T07:25:57.588Z,101417.78
2023-02-26T07:28:22.556Z,101418.53
2023-02-26T07:30:46.254Z,101418.97
2023-02-26T07:33:11.276Z,101429.94
2023-02-26T07:35:36.558Z,101422.41
2023-02-26T07:38:00.095Z,101430.03
2023-02-26T07:40:23.701Z,101437.78
2023-02-26T07:42:47.194Z,101428.47
2023-02-26T07:45:13.640Z,101442.09
2023-02-26T07:47:37.300Z,101440.94
2023-02-26T07:50:01.051Z,101447.44
2023-02-26T07:52:24.703Z,101445.75
2023-02-26T07:54:48.307Z,101453.13
2023-02-26T07:57:11.807Z,101457.09
2023-02-26T07:59:35.486Z,101462.72
2023-02-26T08:02:00.483Z,101465.03
2023-02-26T08:04:24.468Z,101470.03
2023-02-26T08:06:48.013Z,101470.16
2023-02-26T08:09:11.654Z,101474.88
2023-02-26T08:11:39.664Z,101479.81
2023-02-26T08:14:03.326Z,101478.28
2023-02-26T08:16:27.250Z,101490.47
2023-02-26T08:18:52.440Z,101494.25
2023-02-26T08:21:15.944Z,101489.72
2023-02-26T08:23:40.095Z,101499.38
2023-02-26T08:26:04.219Z,101494.03
2023-02-26T08:28:27.833Z,101495.16
2023-02-26T08:30:54.764Z,101503.78
2023-02-26T08:33:19.445Z,101495.88
2023-02-26T08:35:44.392Z,101491.56
2023-02-26T08:38:07.965Z,101499.00
2023-02-26T08:40:31.564Z,101492.72
2023-02-26T08:42:55.147Z,101495.03
2023-02-26T08:45:18.918Z,101504.91
2023-02-26T08:47:55.599Z,101508.63
2023-02-26T08:50:20.230Z,101517.47
2023-02-26T08:52:45.144Z,101520.97
2023-02-26T08:55:09.982Z,101527.34
2023-02-26T08:57:33.595Z,101524.75
2023-02-26T08:59:57.183Z,101524.84
2023-02-26T09:02:20.753Z,101534.63
2023-02-26T09:04:44.344Z,101539.63
2023-02-26T09:07:08.319Z,101531.69
2023-02-26T09:09:33.456Z,101534.53
2023-02-26T09:11:57.054Z,101535.13
2023-02-26T09:14:20.692Z,101547.09
2023-02-26T09:16:44.312Z,101547.81
2023-02-26T09:19:09.069Z,101562.63
2023-02-26T09:21:33.127Z,101570.41
2023-02-26T09:23:56.784Z,101557.72
2023-02-26T09:26:21.700Z,101567.81
2023-02-26T09:28:45.544Z,101576.72
2023-02-26T09:31:09.372Z,101577.00
2023-02-26T09:33:32.988Z,101580.47
2023-02-26T09:35:56.522Z,101583.78
2023-02-26T09:38:20.831Z,101585.09
2023-02-26T09:40:50.345Z,101595.47
2023-02-26T09:43:37.433Z,101598.28
2023-02-26T09:46:07.174Z,101597.28
2023-02-26T09:48:32.333Z,101604.25
2023-02-26T09:50:59.465Z,101605.59
2023-02-26T09:53:28.102Z,101617.47
2023-02-26T09:55:55.877Z,101607.38
2023-02-26T09:58:28.037Z,101612.69
2023-02-26T10:01:04.006Z,101614.31
2023-02-26T10:03:33.484Z,101613.63
2023-02-26T10:06:21.757Z,101618.63
2023-02-26T10:08:59.509Z,101621.66
2023-02-26T10:11:31.975Z,101626.91
2023-02-26T10:14:03.002Z,101618.19
2023-02-26T10:16:31.528Z,101627.72
2023-02-26T10:19:02.959Z,101634.19
2023-02-26T10:21:31.878Z,101634.38
2023-02-26T10:24:00.126Z,101642.38
2023-02-26T10:26:28.066Z,101636.00
2023-02-26T10:29:06.552Z,101636.44
2023-02-26T10:31:38.682Z,101635.53
2023-02-26T10:34:18.348Z,101643.69
2023-02-26T10:36:51.185Z,101646.53
2023-02-26T10:39:30.034Z,101660.31
2023-02-26T10:41:54.653Z,101665.13
2023-02-26T10:44:26.269Z,101667.97
2023-02-26T10:46:56.837Z,101666.53
2023-02-26T10:49:53.893Z,101668.72
2023-02-26T10:52:19.968Z,101666.94
2023-02-26T10:54:57.167Z,101665.38
2023-02-26T10:57:26.588Z,101660.75
2023-02-26T10:59:51.794Z,101667.81
2023-02-26T11:02:36.430Z,101671.06
2023-02-26T11:05:07.537Z,101673.94
2023-02-26T11:07:33.643Z,101677.16
2023-02-26T11:09:57.255Z,101670.47
2023-02-26T11:12:24.101Z,101675.97
2023-02-26T11:14:51.253Z,101678.91
2023-02-26T11:17:19.090Z,101687.59
2023-02-26T11:19:53.453Z,101687.63
2023-02-26T11:22:18.013Z,101693.66
2023-02-26T11:24:46.956Z,101688.94
2023-02-26T11:27:16.264Z,101692.03
2023-02-26T11:29:43.081Z,101693.94
2023-02-26T11:32:12.500Z,101697.94
2023-02-26T11:34:36.821Z,101707.66
2023-02-26T11:37:02.834Z,101706.88
2023-02-26T11:39:30.114Z,101700.38
2023-02-26T11:41:58.357Z,101716.75
2023-02-26T11:44:35.376Z,101715.03
2023-02-26T11:47:00.218Z,101705.13
2023-02-26T11:49:29.190Z,101722.13
2023-02-26T11:52:18.360Z,101707.28
2023-02-26T11:54:42.065Z,101710.84
2023-02-26T11:57:12.730Z,101714.41
2023-02-26T11:59:36.542Z,101723.34
2023-02-26T12:02:07.575Z,101725.25
2023-02-26T12:04:33.460Z,101729.53
2023-02-26T12:06:57.585Z,101725.81
2023-02-26T12:09:23.032Z,101727.28
2023-02-26T12:12:15.179Z,101710.41
2023-02-26T12:14:55.528Z,101711.41
2023-02-26T12:17:35.150Z,101721.69
2023-02-26T12:20:17.312Z,101725.78
2023-02-26T12:22:55.221Z,101722.47
2023-02-26T12:25:47.520Z,101734.03
2023-02-26T12:28:36.470Z,101721.09
2023-02-26T12:31:30.427Z,101718.25
2023-02-26T12:34:11.614Z,101726.91
2023-02-26T12:36:54.366Z,101725.56
2023-02-26T12:39:36.390Z,101716.94
2023-02-26T12:42:17.559Z,101728.13
2023-02-26T12:45:10.901Z,101739.03
2023-02-26T12:47:48.460Z,101739.88
2023-02-26T12:50:46.299Z,101746.00
2023-02-26T12:53:47.515Z,101750.16
2023-02-26T12:56:46.576Z,101746.19
2023-02-26T12:59:42.950Z,101750.94
2023-02-26T13:02:46.331Z,101754.19
2023-02-26T13:05:27.882Z,101756.03
2023-02-26T13:08:11.008Z,101756.53
2023-02-26T13:10:50.465Z,101760.38
2023-02-26T13:13:48.412Z,101768.50
2023-02-26T13:16:32.676Z,101764.44
2023-02-26T13:19:06.791Z,101764.47
2023-02-26T13:21:36.589Z,101758.94
2023-02-26T13:24:07.349Z,101757.06
2023-02-26T13:26:33.488Z,101759.66
2023-02-26T13:29:00.536Z,101756.81
2023-02-26T13:31:30.532Z,101764.13
2023-02-26T13:33:57.465Z,101768.31
2023-02-26T13:36:23.688Z,101776.16
2023-02-26T13:39:06.078Z,101772.03
2023-02-26T13:41:40.996Z,101778.28
2023-02-26T13:44:23.072Z,101782.72
2023-02-26T13:47:17.270Z,101787.13
2023-02-26T13:50:00.849Z,101785.41
2023-02-26T13:52:27.975Z,101779.81
2023-02-26T13:54:52.043Z,101782.03
2023-02-26T13:57:39.823Z,101778.72
2023-02-26T14:00:13.299Z,101779.78
2023-02-26T14:02:53.956Z,101781.03
2023-02-26T14:05:53.961Z,101780.03
2023-02-26T14:08:45.052Z,101783.50
2023-02-26T14:11:35.202Z,101796.13
2023-02-26T14:14:20.537Z,101782.69
2023-02-26T14:16:46.036Z,101783.88
2023-02-26T14:19:30.665Z,101794.03
2023-02-26T14:21:58.845Z,101799.19
2023-02-26T14:24:32.398Z,101790.25
2023-02-26T14:27:25.755Z,101791.19
2023-02-26T14:30:06.509Z,101792.72
2023-02-26T14:32:34.577Z,101795.50
2023-02-26T14:35:01.912Z,101802.84
2023-02-26T14:37:28.656Z,101802.72
2023-02-26T14:39:59.447Z,101805.97
2023-02-26T14:42:32.697Z,101809.22
2023-02-26T14:45:27.483Z,101816.72
2023-02-26T14:47:52.338Z,101810.47
2023-02-26T14:50:18.386Z,101819.09
2023-02-26T14:53:14.361Z,101824.63
2023-02-26T14:55:49.388Z,101825.59
2023-02-26T14:58:38.281Z,101824.22
2023-02-26T15:01:21.444Z,101822.53
2023-02-26T15:04:16.003Z,101824.03
2023-02-26T15:07:00.724Z,101820.19
2023-02-26T15:09:34.973Z,101825.34
2023-02-26T15:12:16.926Z,101822.84
2023-02-26T15:15:05.320Z,101830.84
2023-02-26T15:17:47.818Z,101833.50
2023-02-26T15:20:28.963Z,101832.97
2023-02-26T15:23:14.886Z,101838.50
2023-02-26T15:25:43.173Z,101833.31
2023-02-26T15:28:12.208Z,101841.22
2023-02-26T15:30:36.706Z,101839.25
2023-02-26T15:33:06.503Z,101841.56
2023-02-26T15:35:32.311Z,101832.66
2023-02-26T15:37:58.320Z,101836.16
2023-02-26T15:40:23.048Z,101845.28
2023-02-26T15:42:50.872Z,101844.53
2023-02-26T15:45:20.942Z,101848.03
2023-02-26T15:47:44.546Z,101846.53
2023-02-26T15:50:14.785Z,101847.34
2023-02-26T15:52:38.544Z,101846.03
2023-02-26T15:55:06.497Z,101847.94
2023-02-26T15:57:31.106Z,101849.50
2023-02-26T16:00:06.946Z,101855.34
2023-02-26T16:02:37.148Z,101854.06
2023-02-26T16:05:02.861Z,101853.50
2023-02-26T16:07:27.845Z,101857.63
2023-02-26T16:09:55.474Z,101856.75
2023-02-26T16:12:22.585Z,101858.59
2023-02-26T16:14:50.997Z,101864.31
2023-02-26T16:17:22.139Z,101858.06
2023-02-26T16:19:49.452Z,101855.75
2023-02-26T16:22:22.034Z,101861.09
2023-02-26T16:24:53.467Z,101867.41
2023-02-26T16:27:17.272Z,101863.84
2023-02-26T16:29:49.739Z,101875.00
2023-02-26T16:32:14.306Z,101881.25
2023-02-26T16:34:43.267Z,101880.81
2023-02-26T16:37:24.152Z,101877.06
2023-02-26T16:39:55.670Z,101878.56
2023-02-26T16:42:34.867Z,101883.28
2023-02-26T16:45:17.090Z,101893.50
2023-02-26T16:47:41.677Z,101897.09
2023-02-26T16:50:05.938Z,101907.50
2023-02-26T16:52:29.623Z,101903.63
2023-02-26T16:55:01.872Z,101915.66
2023-02-26T16:57:35.423Z,101919.81
2023-02-26T17:00:09.546Z,101920.22
2023-02-26T17:02:36.317Z,101911.19
2023-02-26T17:05:03.555Z,101925.75
2023-02-26T17:07:31.473Z,101932.59
2023-02-26T17:10:00.133Z,101936.03
2023-02-26T17:12:29.985Z,101942.03
2023-02-26T17:14:57.933Z,101945.41
2023-02-26T17:17:22.124Z,101944.47
2023-02-26T17:19:45.829Z,101945.75
2023-02-26T17:22:17.261Z,101948.41
2023-02-26T17:24:44.331Z,101954.28
2023-02-26T17:27:14.952Z,101953.44
2023-02-26T17:29:43.326Z,101955.56
2023-02-26T17:32:07.576Z,101955.22
2023-02-26T17:34:31.401Z,101966.13
2023-02-26T17:36:57.163Z,101970.59
2023-02-26T17:39:20.770Z,101960.63
2023-02-26T17:41:46.625Z,101973.47
2023-02-26T17:44:11.672Z,101966.06
2023-02-26T17:46:35.281Z,101972.16
2023-02-26T17:48:58.889Z,101972.03
2023-02-26T17:51:22.489Z,101974.78
2023-02-26T17:53:46.716Z,101986.72
2023-02-26T17:56:17.315Z,101980.97
2023-02-26T17:58:41.022Z,101996.28
2023-02-26T18:01:06.383Z,101990.78
2023-02-26T18:03:30.074Z,101994.09
2023-02-26T18:05:56.290Z,101998.34
2023-02-26T18:08:23.642Z,101996.97
2023-02-26T18:10:47.255Z,101997.19
2023-02-26T18:13:11.985Z,102004.41
2023-02-26T18:15:35.639Z,101998.44
2023-02-26T18:18:00.627Z,102004.50
2023-02-26T18:20:24.422Z,102007.84
2023-02-26T18:22:48.936Z,102009.75
2023-02-26T18:25:13.982Z,102004.41
2023-02-26T18:27:37.680Z,102009.06
2023-02-26T18:30:02.840Z,102019.88
2023-02-26T18:32:27.963Z,102013.50
2023-02-26T18:34:53.439Z,102017.91
2023-02-26T18:37:20.308Z,102017.66
2023-02-26T18:39:44.324Z,102011.50
2023-02-26T18:42:08.676Z,102024.91
2023-02-26T18:44:33.178Z,102025.81
2023-02-26T18:46:56.820Z,102028.50
2023-02-26T18:49:22.390Z,102030.63
2023-02-26T18:51:47.380Z,102038.72
2023-02-26T18:54:11.013Z,102039.75
2023-02-26T18:56:34.592Z,102039.00
2023-02-26T18:58:58.113Z,102040.84
2023-02-26T19:01:21.911Z,102044.63
2023-02-26T19:03:45.504Z,102043.94
2023-02-26T19:06:09.890Z,102049.44
2023-02-26T19:08:34.839Z,102051.06
2023-02-26T19:10:58.890Z,102055.63
2023-02-26T19:13:23.952Z,102052.22
2023-02-26T19:15:47.711Z,102051.53
2023-02-26T19:18:11.297Z,102067.56
2023-02-26T19:20:34.992Z,102064.16
2023-02-26T19:22:58.503Z,102065.06
2023-02-26T19:25:27.103Z,102069.53
2023-02-26T19:27:53.256Z,102063.44
2023-02-26T19:30:19.234Z,102061.69
2023-02-26T19:32:42.911Z,102067.41
2023-02-26T19:35:08.207Z,102068.22
2023-02-26T19:37:31.882Z,102067.31
2023-02-26T19:39:55.468Z,102079.59
2023-02-26T19:42:20.632Z,102077.06
2023-02-26T19:44:44.280Z,102077.06
2023-02-26T19:47:07.930Z,102094.84
2023-02-26T19:49:32.006Z,102083.38
2023-02-26T19:51:55.602Z,102087.09
2023-02-26T19:54:19.539Z,102087.91
2023-02-26T19:56:44.120Z,102094.84
2023-02-26T19:59:09.215Z,102096.69
2023-02-26T20:01:32.757Z,102100.47
2023-02-26T20:03:56.405Z,102099.59
2023-02-26T20:06:20.632Z,102109.38
2023-02-26T20:08:44.259Z,102104.97
2023-02-26T20:11:08.591Z,102110.31
2023-02-26T20:13:34.928Z,102113.09
2023-02-26T20:16:01.975Z,102116.56
2023-02-26T20:18:27.549Z,102116.66
2023-02-26T20:20:51.898Z,102121.09
2023-02-26T20:23:15.509Z,102127.06
2023-02-26T20:25:39.096Z,102124.44
2023-02-26T20:28:02.796Z,102122.84
2023-02-26T20:30:26.828Z,102133.38
2023-02-26T20:32:51.943Z,102142.28
2023-02-26T20:35:15.625Z,102137.75
2023-02-26T20:37:39.975Z,102142.09
2023-02-26T20:40:04.934Z,102146.72
2023-02-26T20:42:28.514Z,102145.81
2023-02-26T20:44:52.148Z,102146.56
2023-02-26T20:47:15.792Z,102150.19
2023-02-26T20:49:40.741Z,102142.34
2023-02-26T20:52:04.766Z,102146.97
2023-02-26T20:54:28.483Z,102153.06
2023-02-26T20:56:52.257Z,102151.41
2023-02-26T20:59:16.174Z,102155.72
2023-02-26T21:01:39.812Z,102155.59
2023-02-26T21:04:04.706Z,102161.75
2023-02-26T21:06:29.834Z,102166.09
2023-02-26T21:08:53.362Z,102162.44
2023-02-26T21:11:17.046Z,102166.97
2023-02-26T21:13:40.628Z,102166.88
2023-02-26T21:16:04.457Z,102174.88
2023-02-26T21:18:28.081Z,102168.75
2023-02-26T21:20:54.723Z,102169.63
2023-02-26T21:23:19.702Z,102165.34
2023-02-26T21:25:43.387Z,102160.00
2023-02-26T21:28:06.987Z,102173.25
2023-02-26T21:30:30.636Z,102169.75
2023-02-26T21:32:54.210Z,102170.56
2023-02-26T21:35:18.359Z,102175.75
2023-02-26T21:37:41.934Z,102178.34
2023-02-26T21:40:09.394Z,102174.06
2023-02-26T21:42:33.092Z,102178.50
2023-02-26T21:44:56.814Z,102181.28
2023-02-26T21:47:20.548Z,102192.88
2023-02-26T21:49:44.341Z,102188.53
2023-02-26T21:52:08.729Z,102192.78
2023-02-26T21:54:32.536Z,102192.72
2023-02-26T21:56:58.188Z,102191.84
2023-02-26T21:59:23.236Z,102194.53
2023-02-26T22:01:46.810Z,102194.53
2023-02-26T22:04:10.590Z,102206.28
2023-02-26T22:06:35.338Z,102206.38
2023-02-26T22:08:58.976Z,102204.81
2023-02-26T22:11:22.567Z,102203.06
2023-02-26T22:13:48.734Z,102202.78
2023-02-26T22:16:13.685Z,102208.03
2023-02-26T22:18:37.602Z,102197.72
2023-02-26T22:21:01.141Z,102195.97
2023-02-26T22:23:24.806Z,102196.09
2023-02-26T22:25:48.393Z,102199.41
2023-02-26T22:28:12.007Z,102208.97
2023-02-26T22:30:37.037Z,102204.84
2023-02-26T22:33:00.664Z,102206.59
2023-02-26T22:35:24.365Z,102217.88
2023-02-26T22:37:48.024Z,102217.91
2023-02-26T22:40:14.269Z,102216.19
2023-02-26T22:42:38.052Z,102218.75
2023-02-26T22:45:01.793Z,102225.97
2023-02-26T22:47:26.869Z,102223.19
2023-02-26T22:49:50.499Z,102222.31
2023-02-26T22:52:14.180Z,102230.28
2023-02-26T22:54:39.008Z,102236.50
2023-02-26T22:57:02.679Z,102241.69
2023-02-26T22:59:26.302Z,102239.00
2023-02-26T23:01:49.991Z,102241.75
2023-02-26T23:04:15.320Z,102246.06
2023-02-26T23:06:39.021Z,102242.72
2023-02-26T23:09:02.529Z,102244.47
2023-02-26T23:11:26.439Z,102248.09
2023-02-26T23:13:50.238Z,102250.59
2023-02-26T23:16:14.345Z,102248.09
2023-02-26T23:18:39.495Z,102253.47
2023-02-26T23:21:06.629Z,102255.13
2023-02-26T23:23:30.367Z,102254.13
2023-02-26T23:25:54.142Z,102259.38
2023-02-26T23:28:17.763Z,102253.97
2023-02-26T23:30:42.192Z,102256.63
2023-02-26T23:33:08.063Z,102254.03
2023-02-26T23:35:31.855Z,102251.50
2023-02-26T23:37:56.753Z,102254.88
2023-02-26T23:40:20.653Z,102251.53
2023-02-26T23:42:44.416Z,102256.03
2023-02-26T23:45:09.741Z,102260.41
2023-02-26T23:47:33.632Z,102253.47
2023-02-26T23:49:57.270Z,102257.69
2023-02-26T23:52:20.889Z,102256.88
2023-02-26T23:54:46.021Z,102263.84
2023-02-26T23:57:09.586Z,102256.72
2023-02-26T23:59:33.551Z,102258.53
